Pond Cove, Maine
Current Conditions -  °F | °C
As of 6:51 PM on Monday 20 Oct 2014 (Local Time) from KPWM Reporting Station
Clear Clear  
Wind Chill: 50°   Ceiling: Unl
Heat Index: 50°   Visibility: 10mi
Dew Point: 32°   Wind: 3mph
Humidity: 50%   Direction: 210°SSW
Pressure: 29.97"   Gusts: NA
Location:  43.5903°N, 70.2379°W
Report Text: KPWM 202251Z 21003KT 10SM CLR 10/00 A2997 RMK AO2 SLP147 T01000000
Loading
Personal Weather Stations






























Interactive Weather Map
Tropical Storm Tracking
New forecast layout! Learn more

10-Day Weather Forecast

Advertisements
Track Severe Weather on mobile